createdAt,value
2023-01-09T00:01:32.064Z,0.40
2023-01-09T00:03:59.060Z,0.50
2023-01-09T00:06:26.105Z,0.38
2023-01-09T00:08:53.364Z,0.47
2023-01-09T00:11:20.624Z,0.70
2023-01-09T00:13:47.603Z,0.40
2023-01-09T00:16:15.811Z,0.30
2023-01-09T00:18:42.991Z,0.35
2023-01-09T00:21:13.234Z,0.38
2023-01-09T00:23:40.944Z,0.30
2023-01-09T00:26:18.910Z,0.30
2023-01-09T00:28:47.880Z,0.50
2023-01-09T00:31:15.978Z,0.30
2023-01-09T00:33:48.755Z,0.40
2023-01-09T00:36:15.748Z,0.30
2023-01-09T00:38:42.745Z,0.20
2023-01-09T00:41:17.316Z,0.40
2023-01-09T00:43:51.258Z,0.38
2023-01-09T00:46:24.752Z,0.30
2023-01-09T00:48:52.097Z,0.40
2023-01-09T00:51:20.610Z,0.30
2023-01-09T00:53:49.480Z,0.30
2023-01-09T00:56:19.444Z,0.30
2023-01-09T00:58:48.140Z,0.30
2023-01-09T01:01:15.466Z,0.25
2023-01-09T01:03:42.539Z,0.30
2023-01-09T01:06:28.345Z,0.35
2023-01-09T01:08:56.006Z,0.40
2023-01-09T01:11:24.047Z,0.50
2023-01-09T01:13:51.653Z,0.30
2023-01-09T01:16:18.877Z,0.40
2023-01-09T01:18:46.079Z,0.50
2023-01-09T01:21:14.222Z,0.20
2023-01-09T01:23:42.262Z,0.38
2023-01-09T01:26:13.742Z,0.45
2023-01-09T01:28:41.297Z,0.40
2023-01-09T01:31:08.755Z,0.60
2023-01-09T01:33:36.335Z,0.60
2023-01-09T01:36:08.533Z,0.52
2023-01-09T01:38:36.812Z,0.55
2023-01-09T01:41:05.159Z,0.60
2023-01-09T01:43:57.233Z,0.77
2023-01-09T01:46:24.248Z,1.00
2023-01-09T01:49:03.585Z,0.80
2023-01-09T01:51:36.048Z,0.60
2023-01-09T01:54:11.192Z,0.60
2023-01-09T01:56:46.655Z,0.55
2023-01-09T01:59:26.200Z,0.88
2023-01-09T02:01:59.309Z,0.50
2023-01-09T02:04:28.916Z,0.60
2023-01-09T02:07:02.954Z,0.60
2023-01-09T02:09:29.985Z,0.90
2023-01-09T02:11:58.454Z,0.63
2023-01-09T02:14:31.978Z,0.60
2023-01-09T02:17:16.587Z,0.65
2023-01-09T02:20:16.571Z,0.70
2023-01-09T02:23:34.576Z,0.60
2023-01-09T02:26:53.053Z,0.80
2023-01-09T02:29:44.184Z,0.75
2023-01-09T02:32:39.967Z,0.88
2023-01-09T02:35:55.175Z,0.80
2023-01-09T02:39:03.679Z,1.00
2023-01-09T02:41:45.814Z,0.90
2023-01-09T02:44:30.168Z,0.75
2023-01-09T02:47:08.185Z,0.80
2023-01-09T02:49:39.915Z,0.85
2023-01-09T02:52:22.476Z,1.20
2023-01-09T02:54:58.403Z,1.00
2023-01-09T02:57:46.508Z,1.00
2023-01-09T03:00:44.312Z,1.10
2023-01-09T03:03:30.499Z,1.35
2023-01-09T03:06:15.780Z,1.40
2023-01-09T03:08:54.705Z,1.40
2023-01-09T03:11:22.250Z,1.70
2023-01-09T03:13:59.658Z,1.52
2023-01-09T03:16:37.942Z,2.33
2023-01-09T03:19:13.032Z,1.90
2023-01-09T03:21:42.212Z,1.77
2023-01-09T03:24:09.601Z,1.70
2023-01-09T03:26:37.004Z,1.85
2023-01-09T03:29:04.212Z,1.80
2023-01-09T03:31:31.190Z,1.60
2023-01-09T03:33:58.212Z,2.10
2023-01-09T03:36:25.963Z,1.83
2023-01-09T03:38:53.052Z,1.88
2023-01-09T03:41:20.192Z,2.22
2023-01-09T03:43:48.516Z,1.73
2023-01-09T03:46:17.197Z,1.80
2023-01-09T03:48:44.515Z,1.70
2023-01-09T03:51:11.512Z,1.92
2023-01-09T03:53:39.137Z,2.22
2023-01-09T03:56:06.636Z,1.92
2023-01-09T03:58:33.539Z,1.90
2023-01-09T04:01:04.192Z,2.00
2023-01-09T04:03:31.667Z,1.90
2023-01-09T04:05:58.745Z,1.90
2023-01-09T04:08:25.752Z,1.90
2023-01-09T04:10:52.826Z,2.13
2023-01-09T04:13:19.826Z,2.00
2023-01-09T04:15:47.032Z,2.20
2023-01-09T04:18:15.339Z,1.92
2023-01-09T04:20:42.732Z,2.05
2023-01-09T04:23:09.665Z,2.25
2023-01-09T04:25:36.663Z,1.90
2023-01-09T04:28:03.774Z,2.03
2023-01-09T04:30:30.782Z,2.00
2023-01-09T04:32:57.778Z,2.05
2023-01-09T04:35:24.980Z,2.08
2023-01-09T04:37:51.943Z,1.80
2023-01-09T04:40:19.535Z,1.70
2023-01-09T04:42:46.735Z,2.08
2023-01-09T04:45:15.762Z,2.40
2023-01-09T04:47:43.445Z,1.58
2023-01-09T04:50:12.672Z,1.60
2023-01-09T04:52:40.149Z,1.65
2023-01-09T04:55:09.067Z,1.70
2023-01-09T04:57:36.895Z,1.63
2023-01-09T05:00:09.830Z,1.45
2023-01-09T05:02:38.390Z,1.50
2023-01-09T05:05:08.559Z,1.30
2023-01-09T05:07:38.333Z,1.58
2023-01-09T05:10:07.341Z,1.40
2023-01-09T05:12:37.075Z,1.42
2023-01-09T05:15:06.745Z,1.13
2023-01-09T05:17:33.768Z,1.25
2023-01-09T05:20:03.722Z,1.40
2023-01-09T05:22:30.791Z,1.55
2023-01-09T05:25:00.281Z,1.40
2023-01-09T05:27:27.496Z,1.40
2023-01-09T05:29:54.447Z,1.40
2023-01-09T05:32:21.431Z,1.35
2023-01-09T05:34:48.478Z,1.25
2023-01-09T05:37:15.474Z,1.20
2023-01-09T05:39:42.456Z,1.42
2023-01-09T05:42:09.371Z,1.58
2023-01-09T05:44:36.309Z,1.30
2023-01-09T05:47:03.311Z,1.40
2023-01-09T05:49:30.265Z,1.10
2023-01-09T05:51:57.223Z,1.23
2023-01-09T05:54:24.226Z,1.20
2023-01-09T05:56:51.401Z,1.60
2023-01-09T05:59:18.621Z,0.93
2023-01-09T06:01:45.709Z,1.30
2023-01-09T06:04:12.732Z,1.20
2023-01-09T06:06:42.803Z,1.23
2023-01-09T06:09:09.838Z,0.95
2023-01-09T06:11:38.569Z,1.17
2023-01-09T06:14:07.066Z,1.27
2023-01-09T06:16:34.291Z,1.00
2023-01-09T06:19:01.332Z,1.20
2023-01-09T06:21:29.528Z,1.10
2023-01-09T06:23:56.727Z,1.10
2023-01-09T06:26:27.914Z,1.25
2023-01-09T06:28:56.103Z,1.20
2023-01-09T06:31:25.052Z,1.27
2023-01-09T06:33:52.459Z,1.20
2023-01-09T06:36:22.302Z,1.27
2023-01-09T06:38:49.714Z,1.40
2023-01-09T06:41:17.235Z,1.15
2023-01-09T06:43:44.659Z,1.10
2023-01-09T06:46:11.707Z,1.33
2023-01-09T06:48:38.758Z,1.35
2023-01-09T06:51:05.921Z,1.00
2023-01-09T06:53:33.203Z,1.23
2023-01-09T06:56:01.461Z,1.40
2023-01-09T06:58:28.919Z,1.25
2023-01-09T07:00:56.292Z,1.15
2023-01-09T07:03:23.396Z,1.60
2023-01-09T07:05:50.677Z,1.55
2023-01-09T07:08:17.748Z,1.38
2023-01-09T07:10:45.288Z,1.40
2023-01-09T07:13:12.289Z,1.20
2023-01-09T07:15:39.291Z,1.30
2023-01-09T07:18:06.317Z,1.75
2023-01-09T07:20:33.297Z,1.75
2023-01-09T07:23:00.220Z,2.13
2023-01-09T07:25:27.241Z,2.08
2023-01-09T07:27:54.255Z,1.33
2023-01-09T07:30:21.260Z,1.70
2023-01-09T07:32:48.296Z,1.48
2023-01-09T07:35:15.413Z,1.65
2023-01-09T07:37:42.438Z,1.63
2023-01-09T07:40:10.394Z,1.40
2023-01-09T07:42:37.432Z,1.60
2023-01-09T07:45:06.310Z,1.70
2023-01-09T07:47:33.369Z,1.55
2023-01-09T07:50:00.450Z,1.90
2023-01-09T07:52:27.975Z,1.40
2023-01-09T07:54:54.955Z,1.48
2023-01-09T07:57:23.392Z,1.60
2023-01-09T07:59:50.448Z,1.77
2023-01-09T08:02:18.328Z,1.83
2023-01-09T08:04:45.428Z,2.10
2023-01-09T08:07:12.626Z,1.77
2023-01-09T08:09:39.616Z,2.00
2023-01-09T08:12:06.671Z,1.95
2023-01-09T08:14:33.680Z,1.52
2023-01-09T08:17:00.704Z,1.80
2023-01-09T08:19:27.708Z,1.75
2023-01-09T08:21:54.619Z,2.00
2023-01-09T08:24:21.585Z,1.80
2023-01-09T08:26:48.501Z,1.80
2023-01-09T08:29:15.495Z,1.80
2023-01-09T08:31:42.592Z,1.50
2023-01-09T08:34:09.668Z,1.63
2023-01-09T08:36:36.696Z,2.00
2023-01-09T08:39:03.687Z,1.58
2023-01-09T08:41:49.295Z,1.60
2023-01-09T08:44:34.593Z,1.50
2023-01-09T08:47:07.680Z,1.55
2023-01-09T08:49:37.802Z,1.55
2023-01-09T08:52:07.307Z,1.25
2023-01-09T08:54:36.900Z,1.30
2023-01-09T08:57:04.009Z,1.30
2023-01-09T08:59:30.998Z,2.13
2023-01-09T09:01:58.450Z,1.40
2023-01-09T09:04:25.844Z,1.70
2023-01-09T09:06:52.808Z,1.40
2023-01-09T09:09:19.779Z,1.33
2023-01-09T09:11:46.799Z,1.63
2023-01-09T09:14:32.608Z,1.52
2023-01-09T09:16:59.541Z,1.30
2023-01-09T09:19:26.569Z,1.17
2023-01-09T09:21:53.509Z,1.63
2023-01-09T09:24:20.557Z,1.60
2023-01-09T09:26:47.540Z,1.48
2023-01-09T09:29:14.770Z,1.58
2023-01-09T09:31:41.895Z,1.35
2023-01-09T09:34:08.920Z,1.30
2023-01-09T09:36:36.022Z,1.30
2023-01-09T09:39:03.602Z,1.45
2023-01-09T09:42:07.338Z,1.58
2023-01-09T09:45:02.110Z,1.70
2023-01-09T09:47:49.018Z,1.60
2023-01-09T09:50:47.103Z,1.70
2023-01-09T09:53:41.997Z,1.60
2023-01-09T09:56:16.595Z,1.48
2023-01-09T09:58:54.111Z,1.85
2023-01-09T10:01:36.479Z,11.10
2023-01-09T10:04:12.104Z,1.92
2023-01-09T10:06:50.234Z,6.90
2023-01-09T10:09:37.127Z,6.45
2023-01-09T10:12:17.160Z,2.60
2023-01-09T10:14:44.356Z,3.08
2023-01-09T10:17:38.934Z,1.83
2023-01-09T10:21:04.212Z,4.32
2023-01-09T10:23:46.061Z,2.27
2023-01-09T10:26:45.400Z,2.78
2023-01-09T10:29:42.810Z,1.98
2023-01-09T10:32:35.037Z,1.90
2023-01-09T10:35:52.708Z,2.30
2023-01-09T10:38:35.451Z,10.35
2023-01-09T10:41:30.217Z,7.43
2023-01-09T10:44:08.192Z,2.78
2023-01-09T10:46:45.571Z,3.47
2023-01-09T10:49:24.175Z,3.72
2023-01-09T10:52:16.737Z,5.25
2023-01-09T10:55:02.363Z,3.20
2023-01-09T10:57:45.853Z,3.17
2023-01-09T11:00:23.237Z,3.55
2023-01-09T11:02:53.220Z,5.05
2023-01-09T11:05:32.719Z,3.63
2023-01-09T11:08:11.383Z,5.75
2023-01-09T11:10:48.546Z,3.03
2023-01-09T11:13:31.970Z,4.15
2023-01-09T11:16:21.447Z,3.13
2023-01-09T11:19:00.899Z,2.97
2023-01-09T11:21:32.550Z,3.00
2023-01-09T11:24:21.396Z,3.00
2023-01-09T11:27:13.865Z,3.00
2023-01-09T11:29:42.671Z,2.50
2023-01-09T11:32:30.683Z,3.20
2023-01-09T11:34:58.006Z,2.90
2023-01-09T11:37:30.356Z,2.95
2023-01-09T11:40:01.009Z,3.17
2023-01-09T11:42:48.373Z,3.53
2023-01-09T11:45:36.154Z,2.83
2023-01-09T11:48:28.763Z,2.90
2023-01-09T11:50:59.653Z,3.45
2023-01-09T11:53:28.393Z,3.38
2023-01-09T11:56:02.221Z,3.28
2023-01-09T11:58:35.118Z,3.47
2023-01-09T12:01:47.821Z,3.33
2023-01-09T12:04:33.832Z,3.50
2023-01-09T12:07:06.426Z,2.97
2023-01-09T12:09:51.857Z,3.50
2023-01-09T12:12:49.226Z,3.33
2023-01-09T12:15:29.872Z,3.55
2023-01-09T12:18:10.818Z,3.50
2023-01-09T12:21:32.136Z,3.63
2023-01-09T12:24:36.512Z,3.58
2023-01-09T12:27:21.729Z,3.47
2023-01-09T12:30:54.572Z,3.40
2023-01-09T12:33:45.318Z,3.63
2023-01-09T12:37:04.842Z,3.55
2023-01-09T12:40:33.874Z,9.15
2023-01-09T12:43:39.284Z,4.28
2023-01-09T12:46:18.024Z,5.47
2023-01-09T12:49:02.921Z,5.00
2023-01-09T12:54:56.760Z,4.80
2023-01-09T12:57:38.871Z,7.55
2023-01-09T13:00:25.616Z,6.25
2023-01-09T13:03:13.303Z,9.70
2023-01-09T13:05:49.858Z,5.32
2023-01-09T13:08:36.377Z,6.88
2023-01-09T13:11:20.317Z,5.20
2023-01-09T13:14:10.323Z,4.85
2023-01-09T13:16:44.842Z,5.00
2023-01-09T13:19:40.776Z,4.22
2023-01-09T13:22:08.254Z,7.20
2023-01-09T13:24:53.769Z,6.97
2023-01-09T13:27:26.875Z,4.32
2023-01-09T13:30:46.943Z,4.18
2023-01-09T13:33:29.057Z,4.22
2023-01-09T13:35:59.695Z,3.85
2023-01-09T13:38:31.370Z,4.07
2023-01-09T13:41:31.555Z,4.93
2023-01-09T13:44:07.350Z,4.97
2023-01-09T13:46:50.590Z,2.75
2023-01-09T13:49:42.388Z,1.98
2023-01-09T13:52:30.816Z,2.60
2023-01-09T13:55:00.866Z,2.00
2023-01-09T13:57:29.504Z,2.67
2023-01-09T14:00:19.506Z,4.25
2023-01-09T14:02:49.907Z,4.80
2023-01-09T14:05:25.800Z,4.85
2023-01-09T14:08:06.983Z,5.00
2023-01-09T14:10:47.641Z,5.82
2023-01-09T14:13:22.085Z,5.97
2023-01-09T14:15:52.165Z,6.13
2023-01-09T14:18:31.463Z,5.53
2023-01-09T14:21:09.856Z,5.32
2023-01-09T14:23:52.876Z,5.10
2023-01-09T14:26:49.115Z,5.43
2023-01-09T14:29:34.184Z,12.45
2023-01-09T14:32:23.277Z,24.35
2023-01-09T14:34:58.008Z,7.95
2023-01-09T14:37:28.592Z,5.10
2023-01-09T14:39:57.017Z,4.88
2023-01-09T14:42:30.587Z,4.80
2023-01-09T14:45:06.180Z,4.20
2023-01-09T14:47:54.737Z,4.82
2023-01-09T14:50:45.578Z,4.53
2023-01-09T14:53:31.252Z,3.58
2023-01-09T14:56:06.641Z,2.90
2023-01-09T14:58:38.474Z,3.58
2023-01-09T15:01:22.849Z,3.45
2023-01-09T15:03:59.052Z,3.60
2023-01-09T15:06:42.980Z,6.65
2023-01-09T15:09:45.493Z,4.07
2023-01-09T15:12:24.329Z,5.28
2023-01-09T15:14:57.899Z,4.65
2023-01-09T15:17:32.277Z,4.85
2023-01-09T15:20:05.083Z,4.70
2023-01-09T15:22:36.701Z,4.82
2023-01-09T15:25:39.672Z,4.00
2023-01-09T15:28:25.235Z,4.43
2023-01-09T15:31:11.861Z,4.10
2023-01-09T15:33:42.141Z,3.72
2023-01-09T15:36:24.922Z,3.58
2023-01-09T15:38:53.920Z,3.90
2023-01-09T15:41:48.405Z,4.25
2023-01-09T15:44:20.955Z,4.25
2023-01-09T15:46:50.397Z,6.20
2023-01-09T15:49:19.842Z,4.65
2023-01-09T15:51:48.939Z,5.15
2023-01-09T15:54:32.716Z,5.03
2023-01-09T15:57:34.151Z,4.50
2023-01-09T16:00:41.511Z,4.95
2023-01-09T16:03:20.291Z,4.85
2023-01-09T16:06:10.703Z,1.60
2023-01-09T16:08:52.194Z,2.25
2023-01-09T16:11:28.954Z,1.40
2023-01-09T16:14:01.792Z,1.90
2023-01-09T16:16:33.654Z,2.08
2023-01-09T16:19:00.875Z,2.38
2023-01-09T16:21:38.223Z,2.40
2023-01-09T16:24:14.259Z,2.30
2023-01-09T16:26:41.245Z,2.55
2023-01-09T16:29:33.878Z,3.33
2023-01-09T16:32:04.365Z,2.45
2023-01-09T16:34:34.019Z,1.67
2023-01-09T16:37:02.907Z,4.50
2023-01-09T16:39:30.062Z,2.75
2023-01-09T16:42:23.694Z,2.28
2023-01-09T16:44:50.626Z,2.20
2023-01-09T16:47:17.616Z,2.40
2023-01-09T16:49:44.585Z,2.65
2023-01-09T16:52:20.775Z,2.00
2023-01-09T16:54:47.821Z,1.92
2023-01-09T16:57:18.878Z,2.25
2023-01-09T16:59:46.579Z,1.85
2023-01-09T17:02:20.377Z,2.03
2023-01-09T17:04:47.623Z,2.10
2023-01-09T17:07:17.291Z,1.80
2023-01-09T17:09:45.684Z,1.75
2023-01-09T17:12:27.319Z,1.85
2023-01-09T17:14:54.307Z,1.63
2023-01-09T17:17:21.695Z,18.02
2023-01-09T17:19:49.172Z,2.60
2023-01-09T17:22:16.315Z,4.95
2023-01-09T17:25:02.157Z,1.10
2023-01-09T17:27:55.677Z,3.35
2023-01-09T17:30:22.928Z,3.03
2023-01-09T17:32:49.946Z,2.53
2023-01-09T17:35:17.479Z,2.05
2023-01-09T17:37:44.670Z,2.05
2023-01-09T17:40:19.744Z,2.10
2023-01-09T17:42:46.835Z,3.75
2023-01-09T17:45:14.484Z,2.92
2023-01-09T17:47:41.600Z,2.38
2023-01-09T17:50:19.810Z,3.20
2023-01-09T17:52:48.658Z,3.40
2023-01-09T17:55:15.778Z,2.20
2023-01-09T17:57:43.533Z,2.33
2023-01-09T18:00:36.623Z,7.78
2023-01-09T18:03:05.288Z,2.30
2023-01-09T18:05:32.268Z,3.10
2023-01-09T18:07:59.800Z,2.17
2023-01-09T18:10:30.208Z,2.15
2023-01-09T18:12:57.292Z,2.20
2023-01-09T18:15:24.525Z,2.40
2023-01-09T18:17:52.388Z,2.70
2023-01-09T18:20:19.868Z,2.65
2023-01-09T18:22:47.632Z,2.45
2023-01-09T18:25:17.459Z,2.30
2023-01-09T18:27:44.532Z,2.60
2023-01-09T18:30:12.281Z,2.80
2023-01-09T18:32:40.106Z,2.67
2023-01-09T18:35:08.847Z,2.42
2023-01-09T18:37:37.062Z,3.67
2023-01-09T18:40:05.509Z,2.97
2023-01-09T18:42:33.540Z,2.53
2023-01-09T18:45:00.510Z,2.53
2023-01-09T18:47:27.512Z,2.95
2023-01-09T18:49:54.535Z,3.28
2023-01-09T18:52:21.535Z,2.70
2023-01-09T18:54:48.463Z,3.08
2023-01-09T18:57:15.469Z,3.58
2023-01-09T18:59:42.507Z,2.70
2023-01-09T19:02:21.805Z,2.80
2023-01-09T19:04:49.337Z,2.75
2023-01-09T19:07:16.727Z,3.00
2023-01-09T19:09:44.790Z,2.70
2023-01-09T19:12:12.265Z,2.67
2023-01-09T19:14:39.282Z,3.05
2023-01-09T19:17:08.429Z,2.90
2023-01-09T19:19:35.516Z,2.83
2023-01-09T19:22:02.529Z,5.95
2023-01-09T19:24:31.497Z,6.85
2023-01-09T19:27:00.293Z,3.38
2023-01-09T19:29:28.125Z,3.53
2023-01-09T19:31:55.276Z,5.03
2023-01-09T19:34:22.421Z,3.33
2023-01-09T19:36:50.326Z,2.95
2023-01-09T19:39:17.658Z,4.00
2023-01-09T19:41:44.736Z,5.35
2023-01-09T19:44:11.823Z,4.32
2023-01-09T19:46:38.896Z,4.30
2023-01-09T19:49:06.131Z,6.15
2023-01-09T19:51:33.987Z,7.68
2023-01-09T19:56:40.555Z,3.17
2023-01-09T19:59:08.205Z,2.83
2023-01-09T20:01:39.647Z,3.35
2023-01-09T20:04:13.643Z,9.10
2023-01-09T20:06:47.709Z,7.57
2023-01-09T20:09:24.696Z,5.78
2023-01-09T20:11:51.724Z,3.58
2023-01-09T20:14:19.386Z,4.10
2023-01-09T20:16:48.495Z,3.63
2023-01-09T20:19:16.393Z,3.78
2023-01-09T20:21:43.765Z,3.88
2023-01-09T20:24:15.051Z,3.90
2023-01-09T20:26:42.557Z,3.97
2023-01-09T20:29:09.540Z,4.03
2023-01-09T20:31:39.046Z,3.88
2023-01-09T20:34:06.242Z,4.60
2023-01-09T20:36:34.811Z,4.30
2023-01-09T20:39:06.177Z,4.75
2023-01-09T20:41:36.673Z,4.15
2023-01-09T20:44:12.240Z,4.40
2023-01-09T20:46:42.828Z,4.32
2023-01-09T20:49:13.767Z,3.72
2023-01-09T20:51:50.550Z,4.15
2023-01-09T20:54:21.535Z,3.92
2023-01-09T20:56:48.689Z,3.90
2023-01-09T20:59:22.780Z,4.25
2023-01-09T21:01:52.366Z,3.33
2023-01-09T21:04:19.680Z,3.65
2023-01-09T21:06:49.635Z,3.40
2023-01-09T21:09:17.687Z,3.50
2023-01-09T21:11:44.730Z,3.78
2023-01-09T21:14:11.827Z,3.53
2023-01-09T21:16:38.903Z,3.63
2023-01-09T21:19:05.980Z,4.05
2023-01-09T21:21:32.924Z,3.85
2023-01-09T21:24:00.931Z,4.10
2023-01-09T21:26:30.650Z,4.63
2023-01-09T21:29:01.591Z,5.20
2023-01-09T21:31:36.178Z,4.60
2023-01-09T21:34:07.042Z,5.07
2023-01-09T21:36:35.427Z,4.88
2023-01-09T21:39:07.453Z,4.70
2023-01-09T21:41:54.142Z,5.10
2023-01-09T21:44:39.897Z,4.82
2023-01-09T21:47:06.915Z,4.32
2023-01-09T21:49:36.677Z,5.07
2023-01-09T21:52:04.561Z,12.23
2023-01-09T21:54:32.603Z,6.85
2023-01-09T21:56:59.912Z,6.47
2023-01-09T21:59:29.061Z,5.45
2023-01-09T22:01:56.456Z,4.55
2023-01-09T22:04:28.223Z,4.38
2023-01-09T22:06:55.544Z,5.18
2023-01-09T22:09:23.194Z,5.55
2023-01-09T22:11:50.123Z,11.00
2023-01-09T22:14:19.454Z,7.32
2023-01-09T22:16:47.502Z,6.10
2023-01-09T22:19:18.413Z,5.57
2023-01-09T22:21:46.000Z,4.70
2023-01-09T22:24:16.511Z,4.75
2023-01-09T22:26:44.042Z,4.45
2023-01-09T22:29:11.041Z,4.32
2023-01-09T22:31:39.994Z,5.18
2023-01-09T22:34:07.419Z,5.32
2023-01-09T22:36:34.573Z,5.20
2023-01-09T22:39:01.941Z,5.22
2023-01-09T22:41:30.534Z,6.50
2023-01-09T22:43:59.084Z,5.90
2023-01-09T22:46:26.507Z,6.22
2023-01-09T22:48:53.461Z,4.80
2023-01-09T22:51:21.880Z,5.50
2023-01-09T22:53:51.174Z,6.45
2023-01-09T22:56:22.089Z,6.63
2023-01-09T22:58:54.498Z,6.30
2023-01-09T23:01:22.819Z,5.97
2023-01-09T23:03:50.349Z,5.15
2023-01-09T23:06:21.348Z,5.30
2023-01-09T23:08:50.971Z,5.40
2023-01-09T23:11:45.412Z,4.97
2023-01-09T23:14:13.236Z,5.10
2023-01-09T23:16:41.887Z,4.25
2023-01-09T23:19:09.904Z,5.00
2023-01-09T23:21:37.524Z,5.07
2023-01-09T23:24:07.062Z,4.30
2023-01-09T23:26:35.715Z,4.30
2023-01-09T23:29:06.969Z,3.92
2023-01-09T23:31:34.874Z,4.18
2023-01-09T23:34:03.364Z,4.20
2023-01-09T23:36:30.733Z,3.70
2023-01-09T23:38:59.549Z,3.30
2023-01-09T23:41:45.669Z,3.67
2023-01-09T23:44:12.680Z,3.45
2023-01-09T23:46:39.635Z,3.70
2023-01-09T23:49:06.623Z,3.30
2023-01-09T23:51:33.609Z,3.42
2023-01-09T23:54:00.689Z,3.72
2023-01-09T23:56:30.574Z,4.05
2023-01-09T23:58:58.423Z,4.82
